ADDS METAR Data INFO
IDs: Format: Raw Decoded Include TAF

Data at: 2103 UTC 19 Jul 2018

KLBF 192053Z AUTO 24004KT 10SM CLR 33/21 A2992 RMK AO2 SLP099 T03280206 56009
KLBF 191953Z AUTO VRB03KT 10SM CLR 33/21 A2993 RMK AO2 SLP101 T03280206
KLBF 191853Z AUTO 00000KT 10SM CLR 32/19 A2993 RMK AO2 SLP104 T03170194
KLBF 191753Z AUTO 02005KT 10SM CLR 31/21 A2995 RMK AO2 SLP109 T03110206 10311 20178 56005
KLBF 191653Z AUTO 04007KT 10SM CLR 31/21 A2995 RMK AO2 SLP111 T03060211
KLBF 191553Z AUTO 05005KT 10SM CLR 28/20 A2996 RMK AO2 SLP114 T02780200
KLBF 191453Z AUTO 08007KT 10SM CLR 27/21 A2997 RMK AO2 SLP116 T02670211 51005
KLBF 191353Z AUTO 00000KT 10SM CLR 24/20 A2996 RMK AO2 SLP115 T02390200
KLBF 191253Z AUTO 27004KT 10SM CLR 19/19 A2996 RMK AO2 SLP115 T01940189
KLBF 191153Z AUTO 35006KT 7SM CLR 18/18 A2995 RMK AO2 SLP113 70009 T01780178 10228 20172 55001
KLBF 191053Z AUTO 33004KT 8SM CLR 18/18 A2994 RMK AO2 SLP109 T01830183
KLBF 190953Z AUTO 00000KT 7SM CLR 19/19 A2994 RMK AO2 SLP108 T01940194
KLBF 190853Z AUTO 00000KT 10SM CLR 21/21 A2995 RMK AO2 SLP111 T02110211 55002
KLBF 190753Z AUTO 22003KT 10SM CLR 22/22 A2995 RMK AO2 SLP109 T02220217
KLBF 190653Z AUTO 21007KT 10SM CLR 23/22 A2994 RMK AO2 SLP108 T02280217
KLBF 190553Z AUTO 00000KT 10SM CLR 22/21 A2996 RMK AO2 SLP115 T02220211 10311 20217 403110178 51015
KLBF 190453Z AUTO 34003KT 10SM CLR 24/22 A2995 RMK AO2 SLP113 T02390217
KLBF 190353Z AUTO 00000KT 10SM CLR 23/22 A2994 RMK AO2 SLP109 T02330222
KLBF 190253Z AUTO 00000KT 10SM CLR 24/23 A2991 RMK AO2 SLP101 T02440228 55005
KLBF 190153Z AUTO 22005KT 10SM CLR 28/22 A2990 RMK AO2 SLP097 T02780222
KLBF 190053Z AUTO 25004KT 10SM CLR 31/22 A2991 RMK AO2 SLP099 T03060222
KLBF 182353Z AUTO 25008KT 10SM CLR 31/22 A2993 RMK AO2 SLP104 T03110217 10311 20278 56018
KLBF 182253Z AUTO 23007KT 10SM CLR 31/22 A2993 RMK AO2 SLP104 T03110217
KLBF 182153Z AUTO 25009KT 10SM CLR 31/22 A2996 RMK AO2 SLP113 T03110217
KLBF 182053Z AUTO 24008KT 10SM FEW036 31/22 A2998 RMK AO2 SLP123 T03060222 57016
KLBF 181953Z AUTO 24009KT 10SM FEW038 SCT050 30/23 A3000 RMK AO2 SLP129 T03000228
KLBF 181853Z AUTO 26006KT 10SM FEW032 29/22 A3002 RMK AO2 SLP136 T02940222
KLBF 181753Z AUTO 23007KT 10SM FEW070 28/22 A3004 RMK AO2 SLP142 60009 T02780217 10278 20178 58006
KLBF 181653Z AUTO 23007KT 10SM BKN070 OVC090 26/21 A3005 RMK AO2 SLP149 T02560211
KLBF 181553Z AUTO 21008KT 10SM SCT016 25/22 A3005 RMK AO2 SLP149 T02500217
KLBF 181544Z AUTO 19009KT 10SM SCT015 24/21 A3005 RMK AO2 T02440211
KLBF 181537Z AUTO 18008KT 10SM BKN015 24/22 A3004 RMK AO2 T02390217
KLBF 181453Z AUTO 10SM OVC012 22/21 A3005 RMK AO2 SLP152 60009 T02220211 55027
KLBF 181427Z AUTO 19006KT 10SM BKN012 BKN110 21/21 A3005 RMK AO2 T02110206
KLBF 181353Z AUTO 21005KT 10SM FEW120 19/19 A3004 RMK AO2 SLP147 T01940194
KLBF 181253Z AUTO 14009KT 10SM FEW034 18/18 A3003 RMK AO2 RAE41 SLP144 P0009 T01780178
KLBF 181153Z AUTO 32008G22KT 10SM -RA FEW014 OVC110 18/18 A3014 RMK AO2 WSHFT 1100 LTG DSNT SE-SW SLP180 P0031 60033 70033 T01830183 10206 20178 50012
KLBF 181116Z AUTO 06014G21KT 3SM RA BR FEW002 BKN034 OVC080 19/19 A3011 RMK AO2 WSHFT 1100 LTG DSNT S-NW PRESFR P0024 T01890189
KLBF 181114Z AUTO 06012G22KT 2 1/2SM VCTS RA BR FEW002 BKN032 OVC085 19/19 A3011 RMK AO2 WSHFT 1100 LTG DSNT ALQDS PRESFR P0024 T01890189
KLBF 181106Z AUTO 02015G22KT 2SM VCTS +RA BR FEW002 BKN015 OVC048 19/19 A3013 RMK AO2 LTG DSNT ALQDS PRESFR P0017 T01940194
KLBF 181104Z AUTO 01017G22KT 1 3/4SM VCTS +RA BR FEW002 BKN007 OVC036 20/20 A3013 RMK AO2 LTG DSNT ALQDS P0016 T02000200
KLBF 181053Z AUTO 35008KT 1SM VCTS RA BR VV002 21/21 A3016 RMK AO2 LTG DSNT ALQDS RAB28 SLP182 P0002 T02060206
KLBF 181023Z AUTO 03004KT 1/2SM VCTS FG VV002 21/21 A3015 RMK AO2 LTG DSNT S-NW T02060206
KLBF 181009Z AUTO 03006KT 1/2SM FG VV002 21/21 A3014 RMK AO2 LTG DSNT SW AND W T02060206
KLBF 181002Z AUTO 05007KT 1SM BR OVC002 21/21 A3012 RMK AO2 LTG DSNT SW AND W T02060206
KLBF 180953Z AUTO 06006KT 1 1/2SM BR OVC002 21/21 A3012 RMK AO2 LTG DSNT SW AND W SLP171 T02060206